Auburn, KS

10:00 PM CDT on August 24, 2016 (GMT -0500)
South Pointe Bay Estates | | Change Station

Elev 1096 ft 38.95 °N, 95.80 °W | Updated 5 minutes ago

Heavy Thunderstorms and Rain
Heavy Thunderstorm Rain
71.5 °F
Feels Like 71.5 °F
N
0.0
Wind Variable Wind from ESE
Gusts 0.0 mph

Today
High -- | Low -- °F
--% Chance of Precip.
Yesterday
High -- | Low -- °F
Precip. -- in
Pressure 30.00 in
Visibility 10.0 miles
Clouds Few 2700 ft
Overcast 11000 ft
Dew Point 69 °F
Humidity 93%
Rainfall 0.00 in
Snow Depth Not available.
6:45 AM 8:04 PM
Waning Gibbous, 50% visible
METAR KFOE 250253Z AUTO 15003KT 10SM +TSRA FEW027 OVC110 23/22 A3003 RMK AO2 LTG DSNT NE AND SW TSB39 SLP158 P0002 60009 T02280217 53023
Pressure 30.00 in
Visibility 10.0 miles
Clouds Few 2700 ft
Overcast 11000 ft
Dew Point 69 °F
Humidity 93%
Rainfall 0.00 in
Snow Depth Not available.
6:45 AM 8:04 PM
Waning Gibbous, 50% visible
METAR KFOE 250253Z AUTO 15003KT 10SM +TSRA FEW027 OVC110 23/22 A3003 RMK AO2 LTG DSNT NE AND SW TSB39 SLP158 P0002 60009 T02280217 53023

10-Day Weather Forecast

Almanac

Astronomy

Aug. 24, 2016 Rise Set
Actual Time
Civil Twilight
Nautical Twilight
Astronomical Twilight
Moon
Length of Visible Light
Length of Day
Tomorrow will be .
, % of the Moon is Illuminated

Today's Extremes

State Highs State Lows

Community

WunderPhotos

Upload Photos

1,934,779 photos uploaded!

WunderBlog® & News

Nearby

Air Quality

  Air Quality AQ Index Pollutant
Not available.

Snow Depth

Station Depth Elevation

Earthquake Activity

City Distance Mag. Time & Date
Minimum magnitude displayed is 2.5.

Coastal Water Temperatures

Place Temperature

Stations

Nearby Weather Stations

Station Location Temp. Windchill Dew Point Humidity Wind Precip. Elev Updated Type
                   

Watches & Warnings

There are currently no watches in effect.